sensor_id;sensor_type;location;lat;lon;timestamp;temperature;humidity
21023;DHT22;10669;51.076;3.714;2023-02-01T00:00:38;7.20;96.60
21023;DHT22;10669;51.076;3.714;2023-02-01T00:03:03;7.20;98.50
21023;DHT22;10669;51.076;3.714;2023-02-01T00:05:34;7.20;99.40
21023;DHT22;10669;51.076;3.714;2023-02-01T00:08:01;7.30;98.70
21023;DHT22;10669;51.076;3.714;2023-02-01T00:10:28;7.30;97.80
21023;DHT22;10669;51.076;3.714;2023-02-01T00:17:57;7.10;91.10
21023;DHT22;10669;51.076;3.714;2023-02-01T00:20:24;7.10;91.30
21023;DHT22;10669;51.076;3.714;2023-02-01T00:22:53;7.00;90.20
21023;DHT22;10669;51.076;3.714;2023-02-01T00:25:18;7.00;84.70
21023;DHT22;10669;51.076;3.714;2023-02-01T00:27:48;6.90;87.90
21023;DHT22;10669;51.076;3.714;2023-02-01T00:32:45;6.80;89.40
21023;DHT22;10669;51.076;3.714;2023-02-01T00:37:41;6.80;88.50
21023;DHT22;10669;51.076;3.714;2023-02-01T00:40:14;6.80;86.60
21023;DHT22;10669;51.076;3.714;2023-02-01T00:42:40;6.70;85.90
21023;DHT22;10669;51.076;3.714;2023-02-01T00:45:08;6.60;87.80
21023;DHT22;10669;51.076;3.714;2023-02-01T00:47:35;6.70;88.30
21023;DHT22;10669;51.076;3.714;2023-02-01T00:52:30;6.60;81.60
21023;DHT22;10669;51.076;3.714;2023-02-01T00:54:58;6.40;84.60
21023;DHT22;10669;51.076;3.714;2023-02-01T00:57:26;6.40;90.20
21023;DHT22;10669;51.076;3.714;2023-02-01T00:59:53;6.40;86.00
21023;DHT22;10669;51.076;3.714;2023-02-01T01:02:20;6.40;87.50
21023;DHT22;10669;51.076;3.714;2023-02-01T01:09:43;6.20;88.10
21023;DHT22;10669;51.076;3.714;2023-02-01T01:12:10;6.20;83.30
21023;DHT22;10669;51.076;3.714;2023-02-01T01:14:38;6.20;85.30
21023;DHT22;10669;51.076;3.714;2023-02-01T01:19:33;6.20;81.60
21023;DHT22;10669;51.076;3.714;2023-02-01T01:22:01;6.10;77.90
21023;DHT22;10669;51.076;3.714;2023-02-01T01:24:29;6.00;79.20
21023;DHT22;10669;51.076;3.714;2023-02-01T01:29:26;6.00;80.20
21023;DHT22;10669;51.076;3.714;2023-02-01T01:31:55;6.00;81.70
21023;DHT22;10669;51.076;3.714;2023-02-01T01:34:28;6.10;80.00
21023;DHT22;10669;51.076;3.714;2023-02-01T01:36:54;6.10;74.30
21023;DHT22;10669;51.076;3.714;2023-02-01T01:39:23;6.10;74.10
21023;DHT22;10669;51.076;3.714;2023-02-01T01:41:54;6.10;75.10
21023;DHT22;10669;51.076;3.714;2023-02-01T01:47:09;6.10;73.40
21023;DHT22;10669;51.076;3.714;2023-02-01T01:49:41;6.10;71.60
21023;DHT22;10669;51.076;3.714;2023-02-01T01:52:07;6.00;72.60
21023;DHT22;10669;51.076;3.714;2023-02-01T01:57:04;6.00;75.50
21023;DHT22;10669;51.076;3.714;2023-02-01T01:59:34;5.90;75.30
21023;DHT22;10669;51.076;3.714;2023-02-01T02:02:03;5.90;76.60
21023;DHT22;10669;51.076;3.714;2023-02-01T02:04:34;6.00;74.20
21023;DHT22;10669;51.076;3.714;2023-02-01T02:07:05;5.90;77.40
21023;DHT22;10669;51.076;3.714;2023-02-01T02:09:34;5.80;77.20
21023;DHT22;10669;51.076;3.714;2023-02-01T02:12:01;5.80;80.20
21023;DHT22;10669;51.076;3.714;2023-02-01T02:14:29;5.90;81.30
21023;DHT22;10669;51.076;3.714;2023-02-01T02:20:07;5.70;83.00
21023;DHT22;10669;51.076;3.714;2023-02-01T02:33:42;5.70;83.70
21023;DHT22;10669;51.076;3.714;2023-02-01T02:39:08;5.70;83.20
21023;DHT22;10669;51.076;3.714;2023-02-01T02:44:25;5.80;77.50
21023;DHT22;10669;51.076;3.714;2023-02-01T02:47:22;5.80;81.40
21023;DHT22;10669;51.076;3.714;2023-02-01T02:52:38;5.80;84.80
21023;DHT22;10669;51.076;3.714;2023-02-01T02:55:29;5.80;81.00
21023;DHT22;10669;51.076;3.714;2023-02-01T02:57:58;5.80;83.80
21023;DHT22;10669;51.076;3.714;2023-02-01T03:00:43;5.70;82.40
21023;DHT22;10669;51.076;3.714;2023-02-01T03:03:29;5.80;82.30
21023;DHT22;10669;51.076;3.714;2023-02-01T03:08:42;5.80;78.50
21023;DHT22;10669;51.076;3.714;2023-02-01T03:11:12;5.70;82.70
21023;DHT22;10669;51.076;3.714;2023-02-01T03:13:58;5.70;85.90
21023;DHT22;10669;51.076;3.714;2023-02-01T03:16:40;5.70;85.90
21023;DHT22;10669;51.076;3.714;2023-02-01T03:19:09;5.80;83.90
21023;DHT22;10669;51.076;3.714;2023-02-01T03:21:43;5.70;82.30
21023;DHT22;10669;51.076;3.714;2023-02-01T03:24:14;5.80;85.30
21023;DHT22;10669;51.076;3.714;2023-02-01T03:26:46;5.80;84.90
21023;DHT22;10669;51.076;3.714;2023-02-01T03:29:21;5.80;87.40
21023;DHT22;10669;51.076;3.714;2023-02-01T03:31:50;5.70;87.30
21023;DHT22;10669;51.076;3.714;2023-02-01T03:36:52;5.80;87.00
21023;DHT22;10669;51.076;3.714;2023-02-01T03:39:25;5.90;86.50
21023;DHT22;10669;51.076;3.714;2023-02-01T03:41:53;5.90;85.00
21023;DHT22;10669;51.076;3.714;2023-02-01T03:49:38;5.80;84.90
21023;DHT22;10669;51.076;3.714;2023-02-01T03:52:06;5.90;83.40
21023;DHT22;10669;51.076;3.714;2023-02-01T03:57:04;5.80;82.70
21023;DHT22;10669;51.076;3.714;2023-02-01T03:59:31;5.80;85.70
21023;DHT22;10669;51.076;3.714;2023-02-01T04:04:27;5.70;85.80
21023;DHT22;10669;51.076;3.714;2023-02-01T04:09:23;5.60;90.30
21023;DHT22;10669;51.076;3.714;2023-02-01T04:19:18;5.60;85.90
21023;DHT22;10669;51.076;3.714;2023-02-01T04:21:44;5.60;90.30
21023;DHT22;10669;51.076;3.714;2023-02-01T04:24:10;5.70;90.20
21023;DHT22;10669;51.076;3.714;2023-02-01T04:26:38;5.70;89.30
21023;DHT22;10669;51.076;3.714;2023-02-01T04:29:07;5.60;90.60
21023;DHT22;10669;51.076;3.714;2023-02-01T04:31:37;5.60;89.50
21023;DHT22;10669;51.076;3.714;2023-02-01T04:34:03;5.60;87.10
21023;DHT22;10669;51.076;3.714;2023-02-01T04:36:35;5.60;88.60
21023;DHT22;10669;51.076;3.714;2023-02-01T04:39:00;5.60;87.80
21023;DHT22;10669;51.076;3.714;2023-02-01T04:41:26;5.50;89.70
21023;DHT22;10669;51.076;3.714;2023-02-01T04:46:20;5.60;91.60
21023;DHT22;10669;51.076;3.714;2023-02-01T04:48:47;5.60;87.20
21023;DHT22;10669;51.076;3.714;2023-02-01T04:51:14;5.60;88.10
21023;DHT22;10669;51.076;3.714;2023-02-01T04:53:42;5.60;87.50
21023;DHT22;10669;51.076;3.714;2023-02-01T04:56:09;5.60;85.50
21023;DHT22;10669;51.076;3.714;2023-02-01T04:58:37;5.50;83.80
21023;DHT22;10669;51.076;3.714;2023-02-01T05:03:34;5.50;84.90
21023;DHT22;10669;51.076;3.714;2023-02-01T05:08:33;5.40;90.50
21023;DHT22;10669;51.076;3.714;2023-02-01T05:11:01;5.40;91.10
21023;DHT22;10669;51.076;3.714;2023-02-01T05:13:29;5.30;91.30
21023;DHT22;10669;51.076;3.714;2023-02-01T05:16:13;5.30;92.10
21023;DHT22;10669;51.076;3.714;2023-02-01T05:18:42;5.30;94.90
21023;DHT22;10669;51.076;3.714;2023-02-01T05:21:10;5.30;94.40
21023;DHT22;10669;51.076;3.714;2023-02-01T05:23:42;5.40;92.70
21023;DHT22;10669;51.076;3.714;2023-02-01T05:26:29;5.40;92.30
21023;DHT22;10669;51.076;3.714;2023-02-01T05:29:00;5.30;92.90
21023;DHT22;10669;51.076;3.714;2023-02-01T05:31:28;5.40;93.40
21023;DHT22;10669;51.076;3.714;2023-02-01T05:33:55;5.30;92.20
21023;DHT22;10669;51.076;3.714;2023-02-01T05:36:23;5.40;93.00
21023;DHT22;10669;51.076;3.714;2023-02-01T05:38:49;5.40;90.80
21023;DHT22;10669;51.076;3.714;2023-02-01T05:41:20;5.30;91.80
21023;DHT22;10669;51.076;3.714;2023-02-01T05:46:17;5.30;92.60
21023;DHT22;10669;51.076;3.714;2023-02-01T05:48:44;5.30;93.00
21023;DHT22;10669;51.076;3.714;2023-02-01T05:51:12;5.30;92.90
21023;DHT22;10669;51.076;3.714;2023-02-01T05:53:37;5.30;92.30
21023;DHT22;10669;51.076;3.714;2023-02-01T05:56:06;5.20;92.90
21023;DHT22;10669;51.076;3.714;2023-02-01T05:58:33;5.30;93.80
21023;DHT22;10669;51.076;3.714;2023-02-01T06:01:03;5.30;93.70
21023;DHT22;10669;51.076;3.714;2023-02-01T06:03:29;5.30;93.00
21023;DHT22;10669;51.076;3.714;2023-02-01T06:05:56;5.30;93.40
21023;DHT22;10669;51.076;3.714;2023-02-01T06:08:25;5.30;92.00
21023;DHT22;10669;51.076;3.714;2023-02-01T06:10:51;5.30;92.70
21023;DHT22;10669;51.076;3.714;2023-02-01T06:13:24;5.30;93.00
21023;DHT22;10669;51.076;3.714;2023-02-01T06:15:53;5.20;94.30
21023;DHT22;10669;51.076;3.714;2023-02-01T06:18:21;5.20;94.30
21023;DHT22;10669;51.076;3.714;2023-02-01T06:20:58;5.20;95.50
21023;DHT22;10669;51.076;3.714;2023-02-01T06:23:25;5.20;95.80
21023;DHT22;10669;51.076;3.714;2023-02-01T06:25:51;5.20;95.50
21023;DHT22;10669;51.076;3.714;2023-02-01T06:28:18;5.30;94.30
21023;DHT22;10669;51.076;3.714;2023-02-01T06:30:44;5.30;94.40
21023;DHT22;10669;51.076;3.714;2023-02-01T06:35:46;5.30;94.90
21023;DHT22;10669;51.076;3.714;2023-02-01T06:38:15;5.30;94.20
21023;DHT22;10669;51.076;3.714;2023-02-01T06:40:46;5.20;94.20
21023;DHT22;10669;51.076;3.714;2023-02-01T06:45:47;5.20;96.10
21023;DHT22;10669;51.076;3.714;2023-02-01T06:48:14;5.20;96.10
21023;DHT22;10669;51.076;3.714;2023-02-01T06:50:39;5.20;95.50
21023;DHT22;10669;51.076;3.714;2023-02-01T06:53:06;5.20;96.60
21023;DHT22;10669;51.076;3.714;2023-02-01T06:55:35;5.10;97.60
21023;DHT22;10669;51.076;3.714;2023-02-01T06:58:03;5.20;97.60
21023;DHT22;10669;51.076;3.714;2023-02-01T07:00:29;5.20;97.10
21023;DHT22;10669;51.076;3.714;2023-02-01T07:02:54;5.20;96.20
21023;DHT22;10669;51.076;3.714;2023-02-01T07:05:22;5.10;97.90
21023;DHT22;10669;51.076;3.714;2023-02-01T07:10:16;5.20;97.20
21023;DHT22;10669;51.076;3.714;2023-02-01T07:12:45;5.20;96.00
21023;DHT22;10669;51.076;3.714;2023-02-01T07:15:14;5.20;95.50
21023;DHT22;10669;51.076;3.714;2023-02-01T07:20:10;5.20;97.20
21023;DHT22;10669;51.076;3.714;2023-02-01T07:25:06;5.20;97.30
21023;DHT22;10669;51.076;3.714;2023-02-01T07:27:33;5.20;95.70
21023;DHT22;10669;51.076;3.714;2023-02-01T07:29:59;5.20;94.80
21023;DHT22;10669;51.076;3.714;2023-02-01T07:32:28;5.20;93.90
21023;DHT22;10669;51.076;3.714;2023-02-01T07:34:56;5.20;95.20
21023;DHT22;10669;51.076;3.714;2023-02-01T07:37:21;5.30;94.80
21023;DHT22;10669;51.076;3.714;2023-02-01T07:39:52;5.30;94.00
21023;DHT22;10669;51.076;3.714;2023-02-01T07:42:17;5.30;94.30
21023;DHT22;10669;51.076;3.714;2023-02-01T07:44:46;5.30;94.70
21023;DHT22;10669;51.076;3.714;2023-02-01T07:47:11;5.40;94.90
21023;DHT22;10669;51.076;3.714;2023-02-01T07:49:40;5.40;93.40
21023;DHT22;10669;51.076;3.714;2023-02-01T07:52:07;5.40;94.80
21023;DHT22;10669;51.076;3.714;2023-02-01T07:54:35;5.50;94.80
21023;DHT22;10669;51.076;3.714;2023-02-01T07:59:30;5.60;93.40
21023;DHT22;10669;51.076;3.714;2023-02-01T08:02:01;5.60;92.00
21023;DHT22;10669;51.076;3.714;2023-02-01T08:04:27;5.60;91.20
21023;DHT22;10669;51.076;3.714;2023-02-01T08:07:00;5.60;91.90
21023;DHT22;10669;51.076;3.714;2023-02-01T08:09:26;5.60;92.30
21023;DHT22;10669;51.076;3.714;2023-02-01T08:11:52;5.70;93.50
21023;DHT22;10669;51.076;3.714;2023-02-01T08:14:18;5.80;92.30
21023;DHT22;10669;51.076;3.714;2023-02-01T08:16:47;5.90;91.30
21023;DHT22;10669;51.076;3.714;2023-02-01T08:19:14;6.00;90.00
21023;DHT22;10669;51.076;3.714;2023-02-01T08:21:40;6.00;88.90
21023;DHT22;10669;51.076;3.714;2023-02-01T08:26:37;6.10;83.20
21023;DHT22;10669;51.076;3.714;2023-02-01T08:29:09;6.10;85.60
21023;DHT22;10669;51.076;3.714;2023-02-01T08:31:37;6.10;84.90
21023;DHT22;10669;51.076;3.714;2023-02-01T08:34:09;6.10;87.00
21023;DHT22;10669;51.076;3.714;2023-02-01T08:36:36;6.10;88.10
21023;DHT22;10669;51.076;3.714;2023-02-01T08:39:05;6.10;89.30
21023;DHT22;10669;51.076;3.714;2023-02-01T08:41:36;6.10;90.30
21023;DHT22;10669;51.076;3.714;2023-02-01T08:44:03;6.20;88.80
21023;DHT22;10669;51.076;3.714;2023-02-01T08:46:31;6.20;85.80
21023;DHT22;10669;51.076;3.714;2023-02-01T08:49:04;6.20;86.50
21023;DHT22;10669;51.076;3.714;2023-02-01T08:51:30;6.20;87.80
21023;DHT22;10669;51.076;3.714;2023-02-01T08:53:57;6.30;87.90
21023;DHT22;10669;51.076;3.714;2023-02-01T08:56:25;6.50;88.20
21023;DHT22;10669;51.076;3.714;2023-02-01T08:58:54;6.60;76.80
21023;DHT22;10669;51.076;3.714;2023-02-01T09:01:20;6.80;79.10
21023;DHT22;10669;51.076;3.714;2023-02-01T09:03:49;6.90;68.40
21023;DHT22;10669;51.076;3.714;2023-02-01T09:06:17;6.90;69.60
21023;DHT22;10669;51.076;3.714;2023-02-01T09:11:18;7.10;63.20
21023;DHT22;10669;51.076;3.714;2023-02-01T09:13:47;7.20;62.00
21023;DHT22;10669;51.076;3.714;2023-02-01T09:16:17;7.30;62.40
21023;DHT22;10669;51.076;3.714;2023-02-01T09:18:44;7.20;59.50
21023;DHT22;10669;51.076;3.714;2023-02-01T09:23:41;7.30;56.70
21023;DHT22;10669;51.076;3.714;2023-02-01T09:26:13;7.30;55.10
21023;DHT22;10669;51.076;3.714;2023-02-01T09:28:38;7.40;53.60
21023;DHT22;10669;51.076;3.714;2023-02-01T09:33:32;7.50;54.80
21023;DHT22;10669;51.076;3.714;2023-02-01T09:36:00;7.60;52.70
21023;DHT22;10669;51.076;3.714;2023-02-01T09:38:26;7.60;52.00
21023;DHT22;10669;51.076;3.714;2023-02-01T09:40:55;7.60;50.60
21023;DHT22;10669;51.076;3.714;2023-02-01T09:48:57;7.70;50.60
21023;DHT22;10669;51.076;3.714;2023-02-01T09:51:31;7.80;41.20
21023;DHT22;10669;51.076;3.714;2023-02-01T09:57:24;8.00;34.70
21023;DHT22;10669;51.076;3.714;2023-02-01T10:00:00;8.10;33.00
21023;DHT22;10669;51.076;3.714;2023-02-01T10:02:28;8.20;30.20
21023;DHT22;10669;51.076;3.714;2023-02-01T10:05:01;8.30;32.00
21023;DHT22;10669;51.076;3.714;2023-02-01T10:12:54;8.30;28.10
21023;DHT22;10669;51.076;3.714;2023-02-01T10:26:20;8.30;23.00
21023;DHT22;10669;51.076;3.714;2023-02-01T10:29:02;8.50;21.90
21023;DHT22;10669;51.076;3.714;2023-02-01T10:31:36;8.50;18.20
21023;DHT22;10669;51.076;3.714;2023-02-01T10:39:25;8.60;13.00
21023;DHT22;10669;51.076;3.714;2023-02-01T10:41:53;8.70;1.50
21023;DHT22;10669;51.076;3.714;2023-02-01T10:44:26;8.70;1.00
21023;DHT22;10669;51.076;3.714;2023-02-01T10:46:55;8.70;1.00
21023;DHT22;10669;51.076;3.714;2023-02-01T10:49:29;8.70;1.00
21023;DHT22;10669;51.076;3.714;2023-02-01T10:52:02;8.70;1.00
21023;DHT22;10669;51.076;3.714;2023-02-01T10:54:35;8.70;1.00
21023;DHT22;10669;51.076;3.714;2023-02-01T10:57:07;8.80;1.00
21023;DHT22;10669;51.076;3.714;2023-02-01T10:59:33;9.10;1.00
21023;DHT22;10669;51.076;3.714;2023-02-01T11:02:25;9.20;1.00
21023;DHT22;10669;51.076;3.714;2023-02-01T11:05:07;9.30;1.00
21023;DHT22;10669;51.076;3.714;2023-02-01T11:07:36;9.30;1.00
21023;DHT22;10669;51.076;3.714;2023-02-01T11:12:35;9.50;1.00
21023;DHT22;10669;51.076;3.714;2023-02-01T11:15:20;9.50;1.00
21023;DHT22;10669;51.076;3.714;2023-02-01T11:17:50;9.60;1.00
21023;DHT22;10669;51.076;3.714;2023-02-01T11:20:40;9.70;1.00
21023;DHT22;10669;51.076;3.714;2023-02-01T11:23:18;9.80;1.00
21023;DHT22;10669;51.076;3.714;2023-02-01T11:26:00;9.80;99.90
21023;DHT22;10669;51.076;3.714;2023-02-01T11:28:32;9.70;99.90
21023;DHT22;10669;51.076;3.714;2023-02-01T11:31:02;9.60;1.00
21023;DHT22;10669;51.076;3.714;2023-02-01T11:33:33;9.80;1.00
21023;DHT22;10669;51.076;3.714;2023-02-01T11:38:35;10.00;99.90
21023;DHT22;10669;51.076;3.714;2023-02-01T11:46:24;10.40;99.90
21023;DHT22;10669;51.076;3.714;2023-02-01T11:48:52;10.40;99.90
21023;DHT22;10669;51.076;3.714;2023-02-01T11:51:29;10.30;99.90
21023;DHT22;10669;51.076;3.714;2023-02-01T12:01:46;10.00;99.90
21023;DHT22;10669;51.076;3.714;2023-02-01T12:09:53;9.90;99.90
21023;DHT22;10669;51.076;3.714;2023-02-01T12:12:24;10.00;99.90
21023;DHT22;10669;51.076;3.714;2023-02-01T12:17:51;10.10;30.20
21023;DHT22;10669;51.076;3.714;2023-02-01T12:28:46;10.40;1.00
21023;DHT22;10669;51.076;3.714;2023-02-01T12:39:22;10.60;1.00
21023;DHT22;10669;51.076;3.714;2023-02-01T12:41:56;10.30;1.00
21023;DHT22;10669;51.076;3.714;2023-02-01T12:44:35;10.30;1.00
21023;DHT22;10669;51.076;3.714;2023-02-01T12:53:06;10.40;54.90
21023;DHT22;10669;51.076;3.714;2023-02-01T12:55:10;10.40;1.00
21023;DHT22;10669;51.076;3.714;2023-02-01T12:57:43;10.40;99.90
21023;DHT22;10669;51.076;3.714;2023-02-01T13:02:41;10.40;1.00
21023;DHT22;10669;51.076;3.714;2023-02-01T13:05:21;10.50;1.00
21023;DHT22;10669;51.076;3.714;2023-02-01T13:07:57;10.40;1.00
21023;DHT22;10669;51.076;3.714;2023-02-01T13:15:46;10.50;1.00
21023;DHT22;10669;51.076;3.714;2023-02-01T13:18:14;10.50;1.00
21023;DHT22;10669;51.076;3.714;2023-02-01T13:26:03;10.50;1.00
21023;DHT22;10669;51.076;3.714;2023-02-01T13:41:52;10.30;1.00
21023;DHT22;10669;51.076;3.714;2023-02-01T13:44:21;10.30;1.00
21023;DHT22;10669;51.076;3.714;2023-02-01T13:46:49;10.30;1.00
21023;DHT22;10669;51.076;3.714;2023-02-01T13:51:53;10.50;1.00
21023;DHT22;10669;51.076;3.714;2023-02-01T13:54:36;10.50;1.00
21023;DHT22;10669;51.076;3.714;2023-02-01T13:57:06;10.50;1.00
21023;DHT22;10669;51.076;3.714;2023-02-01T13:59:48;10.50;1.00
21023;DHT22;10669;51.076;3.714;2023-02-01T14:04:59;10.30;99.90
21023;DHT22;10669;51.076;3.714;2023-02-01T14:07:26;10.30;99.90
21023;DHT22;10669;51.076;3.714;2023-02-01T14:09:52;10.20;99.90
21023;DHT22;10669;51.076;3.714;2023-02-01T14:15:22;10.30;99.90
21023;DHT22;10669;51.076;3.714;2023-02-01T14:17:51;10.10;99.90
21023;DHT22;10669;51.076;3.714;2023-02-01T14:23:22;9.90;1.00
21023;DHT22;10669;51.076;3.714;2023-02-01T14:25:59;9.90;1.00
21023;DHT22;10669;51.076;3.714;2023-02-01T14:28:32;9.90;1.00
21023;DHT22;10669;51.076;3.714;2023-02-01T14:31:06;9.90;1.00
21023;DHT22;10669;51.076;3.714;2023-02-01T14:36:11;9.80;1.00
21023;DHT22;10669;51.076;3.714;2023-02-01T14:38:38;9.70;1.00
21023;DHT22;10669;51.076;3.714;2023-02-01T14:44:12;9.80;1.00
21023;DHT22;10669;51.076;3.714;2023-02-01T14:49:28;9.70;1.00
21023;DHT22;10669;51.076;3.714;2023-02-01T14:51:56;9.60;1.00
21023;DHT22;10669;51.076;3.714;2023-02-01T14:54:22;9.70;1.00
21023;DHT22;10669;51.076;3.714;2023-02-01T14:56:49;9.70;1.00
21023;DHT22;10669;51.076;3.714;2023-02-01T14:59:20;9.70;1.00
21023;DHT22;10669;51.076;3.714;2023-02-01T15:01:55;9.60;1.00
21023;DHT22;10669;51.076;3.714;2023-02-01T15:04:24;9.60;1.00
21023;DHT22;10669;51.076;3.714;2023-02-01T15:14:41;9.50;1.00
21023;DHT22;10669;51.076;3.714;2023-02-01T15:19:59;9.60;1.00
21023;DHT22;10669;51.076;3.714;2023-02-01T15:22:26;9.50;1.00
21023;DHT22;10669;51.076;3.714;2023-02-01T15:24:56;9.50;1.00
21023;DHT22;10669;51.076;3.714;2023-02-01T15:27:29;9.50;1.00
21023;DHT22;10669;51.076;3.714;2023-02-01T15:34:59;9.50;1.00
21023;DHT22;10669;51.076;3.714;2023-02-01T15:37:28;9.40;1.00
21023;DHT22;10669;51.076;3.714;2023-02-01T15:40:05;9.50;1.00
21023;DHT22;10669;51.076;3.714;2023-02-01T15:42:33;9.40;1.00
21023;DHT22;10669;51.076;3.714;2023-02-01T15:44:59;9.40;1.00
21023;DHT22;10669;51.076;3.714;2023-02-01T15:47:31;9.40;1.00
21023;DHT22;10669;51.076;3.714;2023-02-01T15:50:00;9.40;1.00
21023;DHT22;10669;51.076;3.714;2023-02-01T15:55:02;9.40;1.00
21023;DHT22;10669;51.076;3.714;2023-02-01T15:57:33;9.30;1.00
21023;DHT22;10669;51.076;3.714;2023-02-01T16:00:02;9.30;1.00
21023;DHT22;10669;51.076;3.714;2023-02-01T16:04:58;9.30;1.00
21023;DHT22;10669;51.076;3.714;2023-02-01T16:07:31;9.40;1.00
21023;DHT22;10669;51.076;3.714;2023-02-01T16:09:58;9.30;1.00
21023;DHT22;10669;51.076;3.714;2023-02-01T16:12:29;9.30;1.00
21023;DHT22;10669;51.076;3.714;2023-02-01T16:14:56;9.20;1.00
21023;DHT22;10669;51.076;3.714;2023-02-01T16:17:23;9.10;1.00
21023;DHT22;10669;51.076;3.714;2023-02-01T16:19:50;9.10;1.00
21023;DHT22;10669;51.076;3.714;2023-02-01T16:24:47;9.30;1.00
21023;DHT22;10669;51.076;3.714;2023-02-01T16:27:12;9.30;1.00
21023;DHT22;10669;51.076;3.714;2023-02-01T16:29:38;9.20;1.00
21023;DHT22;10669;51.076;3.714;2023-02-01T16:32:13;9.20;1.00
21023;DHT22;10669;51.076;3.714;2023-02-01T16:34:42;9.20;1.00
21023;DHT22;10669;51.076;3.714;2023-02-01T16:37:14;9.10;1.00
21023;DHT22;10669;51.076;3.714;2023-02-01T16:39:42;9.00;1.00
21023;DHT22;10669;51.076;3.714;2023-02-01T16:42:16;9.00;1.00
21023;DHT22;10669;51.076;3.714;2023-02-01T16:44:43;9.10;1.00
21023;DHT22;10669;51.076;3.714;2023-02-01T16:47:14;9.10;1.00
21023;DHT22;10669;51.076;3.714;2023-02-01T16:49:44;9.10;1.00
21023;DHT22;10669;51.076;3.714;2023-02-01T16:52:18;8.90;1.00
21023;DHT22;10669;51.076;3.714;2023-02-01T16:54:54;8.90;1.00
21023;DHT22;10669;51.076;3.714;2023-02-01T16:57:20;9.00;1.00
21023;DHT22;10669;51.076;3.714;2023-02-01T16:59:49;9.00;1.00
21023;DHT22;10669;51.076;3.714;2023-02-01T17:02:18;8.90;1.00
21023;DHT22;10669;51.076;3.714;2023-02-01T17:04:51;8.90;1.00
21023;DHT22;10669;51.076;3.714;2023-02-01T17:07:17;8.80;1.00
21023;DHT22;10669;51.076;3.714;2023-02-01T17:09:44;8.80;5.90
21023;DHT22;10669;51.076;3.714;2023-02-01T17:12:23;8.80;1.00
21023;DHT22;10669;51.076;3.714;2023-02-01T17:17:19;8.90;7.20
21023;DHT22;10669;51.076;3.714;2023-02-01T17:19:49;9.00;1.00
21023;DHT22;10669;51.076;3.714;2023-02-01T17:22:18;8.90;1.00
21023;DHT22;10669;51.076;3.714;2023-02-01T17:27:16;9.10;1.00
21023;DHT22;10669;51.076;3.714;2023-02-01T17:29:48;9.20;1.00
21023;DHT22;10669;51.076;3.714;2023-02-01T17:32:16;9.30;1.00
21023;DHT22;10669;51.076;3.714;2023-02-01T17:34:44;9.20;1.00
21023;DHT22;10669;51.076;3.714;2023-02-01T17:39:56;9.00;1.00
21023;DHT22;10669;51.076;3.714;2023-02-01T17:42:23;9.00;1.00
21023;DHT22;10669;51.076;3.714;2023-02-01T17:47:19;9.10;1.00
21023;DHT22;10669;51.076;3.714;2023-02-01T17:49:46;9.00;1.00
21023;DHT22;10669;51.076;3.714;2023-02-01T17:52:16;9.00;1.00
21023;DHT22;10669;51.076;3.714;2023-02-01T17:57:20;9.00;1.00
21023;DHT22;10669;51.076;3.714;2023-02-01T17:59:49;9.10;1.00
21023;DHT22;10669;51.076;3.714;2023-02-01T18:02:20;9.00;1.00
21023;DHT22;10669;51.076;3.714;2023-02-01T18:04:46;9.00;1.00
21023;DHT22;10669;51.076;3.714;2023-02-01T18:07:12;9.00;1.00
21023;DHT22;10669;51.076;3.714;2023-02-01T18:09:39;8.90;5.50
21023;DHT22;10669;51.076;3.714;2023-02-01T18:12:17;8.90;1.00
21023;DHT22;10669;51.076;3.714;2023-02-01T18:17:14;9.00;1.00
21023;DHT22;10669;51.076;3.714;2023-02-01T18:19:41;9.00;1.00
21023;DHT22;10669;51.076;3.714;2023-02-01T18:22:24;9.00;1.00
21023;DHT22;10669;51.076;3.714;2023-02-01T18:24:57;9.00;1.00
21023;DHT22;10669;51.076;3.714;2023-02-01T18:27:24;8.90;2.20
21023;DHT22;10669;51.076;3.714;2023-02-01T18:29:52;8.90;4.30
21023;DHT22;10669;51.076;3.714;2023-02-01T18:32:18;8.90;3.70
21023;DHT22;10669;51.076;3.714;2023-02-01T18:34:43;8.90;7.80
21023;DHT22;10669;51.076;3.714;2023-02-01T18:37:09;9.00;1.00
21023;DHT22;10669;51.076;3.714;2023-02-01T18:39:37;9.00;1.00
21023;DHT22;10669;51.076;3.714;2023-02-01T18:42:03;9.00;1.00
21023;DHT22;10669;51.076;3.714;2023-02-01T18:44:29;9.00;1.00
21023;DHT22;10669;51.076;3.714;2023-02-01T18:46:56;8.90;2.10
21023;DHT22;10669;51.076;3.714;2023-02-01T18:49:24;8.90;1.00
21023;DHT22;10669;51.076;3.714;2023-02-01T18:51:50;8.80;5.30
21023;DHT22;10669;51.076;3.714;2023-02-01T19:01:46;9.00;1.00
21023;DHT22;10669;51.076;3.714;2023-02-01T19:04:13;9.00;1.00
21023;DHT22;10669;51.076;3.714;2023-02-01T19:06:40;9.00;1.00
21023;DHT22;10669;51.076;3.714;2023-02-01T19:09:06;9.00;1.00
21023;DHT22;10669;51.076;3.714;2023-02-01T19:11:35;8.90;3.00
21023;DHT22;10669;51.076;3.714;2023-02-01T19:14:03;8.80;6.30
21023;DHT22;10669;51.076;3.714;2023-02-01T19:16:30;8.80;8.30
21023;DHT22;10669;51.076;3.714;2023-02-01T19:18:59;8.80;12.80
21023;DHT22;10669;51.076;3.714;2023-02-01T19:21:25;8.90;6.60
21023;DHT22;10669;51.076;3.714;2023-02-01T19:23:52;8.90;2.00
21023;DHT22;10669;51.076;3.714;2023-02-01T19:26:21;8.90;4.10
21023;DHT22;10669;51.076;3.714;2023-02-01T19:28:48;8.90;4.80
21023;DHT22;10669;51.076;3.714;2023-02-01T19:31:14;8.90;2.60
21023;DHT22;10669;51.076;3.714;2023-02-01T19:33:42;8.90;1.00
21023;DHT22;10669;51.076;3.714;2023-02-01T19:36:07;9.00;1.00
21023;DHT22;10669;51.076;3.714;2023-02-01T19:41:03;9.00;1.00
21023;DHT22;10669;51.076;3.714;2023-02-01T19:43:29;9.00;1.00
21023;DHT22;10669;51.076;3.714;2023-02-01T19:45:57;9.10;1.00
21023;DHT22;10669;51.076;3.714;2023-02-01T19:48:26;9.00;1.00
21023;DHT22;10669;51.076;3.714;2023-02-01T19:50:55;9.00;1.00
21023;DHT22;10669;51.076;3.714;2023-02-01T19:53:23;9.10;1.00
21023;DHT22;10669;51.076;3.714;2023-02-01T19:55:55;9.10;1.00
21023;DHT22;10669;51.076;3.714;2023-02-01T19:58:27;9.10;1.00
21023;DHT22;10669;51.076;3.714;2023-02-01T20:00:56;9.00;1.00
21023;DHT22;10669;51.076;3.714;2023-02-01T20:03:25;9.00;1.00
21023;DHT22;10669;51.076;3.714;2023-02-01T20:08:26;8.90;2.00
21023;DHT22;10669;51.076;3.714;2023-02-01T20:10:52;8.90;4.10
21023;DHT22;10669;51.076;3.714;2023-02-01T20:13:18;8.80;9.10
21023;DHT22;10669;51.076;3.714;2023-02-01T20:15:47;8.80;8.20
21023;DHT22;10669;51.076;3.714;2023-02-01T20:18:15;8.80;5.20
21023;DHT22;10669;51.076;3.714;2023-02-01T20:20:43;8.80;12.90
21023;DHT22;10669;51.076;3.714;2023-02-01T20:25:37;8.70;23.70
21023;DHT22;10669;51.076;3.714;2023-02-01T20:28:04;8.70;25.60
21023;DHT22;10669;51.076;3.714;2023-02-01T20:30:32;8.70;24.40
21023;DHT22;10669;51.076;3.714;2023-02-01T20:32:58;8.70;23.30
21023;DHT22;10669;51.076;3.714;2023-02-01T20:35:27;8.80;17.40
21023;DHT22;10669;51.076;3.714;2023-02-01T20:37:56;8.80;9.70
21023;DHT22;10669;51.076;3.714;2023-02-01T20:40:26;8.70;12.20
21023;DHT22;10669;51.076;3.714;2023-02-01T20:42:54;8.70;20.70
21023;DHT22;10669;51.076;3.714;2023-02-01T20:45:24;8.60;25.60
21023;DHT22;10669;51.076;3.714;2023-02-01T20:47:51;8.60;27.50
21023;DHT22;10669;51.076;3.714;2023-02-01T20:50:20;8.70;22.50
21023;DHT22;10669;51.076;3.714;2023-02-01T20:52:46;8.70;19.50